British Robin — MGSH7 — position and weather

sailwx.info

Track history (hours):
 
Tides and Currents Weather Stations Pressure Air Temp Water Temp Dewpoint Dewpoint Depression Visibility Wind Speed Wind Dir Waves Ship Positions

British Robin

Last reported at 2016-May-05 04:28 UTC. Time now 2016-May-05 04:47 UTC.
Position N 29°25' W 093°43'.

Length 251.5 m; beam 43.9 m; draft 15 m.

Type: Tanker. MMSI: 232156000.

Date/timePositionNaut miles runAvg speedWind from/ knotsBaromVisibWave heightAir tempDewpointWater temp
2016-May-05 04:28N 29°25' W 093°43'61 1.2
2016-May-03 02:33N 29°23' W 094°53'  
2016-Apr-30 16:33N 29°45' W 095°06'5 5.1
2016-Apr-30 15:33N 29°42' W 095°01'9 9.4
2016-Apr-30 14:33N 29°34' W 094°55'1110.8
2016-Apr-30 13:33N 29°25' W 094°49'16 0.7
2016-Apr-29 14:29N 29°12' W 094°38'1 1.1
2016-Apr-29 13:27N 29°11' W 094°39'10 7.3
2016-Apr-29 12:04N 29°04' W 094°32'611.2
2016-Apr-29 11:33N 28°60' W 094°27'10 9.7
2016-Apr-29 10:33N 28°55' W 094°17'1313.3
2016-Apr-29 09:33N 28°52' W 094°03'1313.0
2016-Apr-29 08:33N 28°48' W 093°48'1313.6
2016-Apr-29 07:33N 28°40' W 093°36'1413.8
2016-Apr-29 06:33N 28°32' W 093°23'4213.9
2016-Apr-29 03:34N 28°05' W 092°47'44912.6
2016-Apr-27 16:00N 23°12' W 086°30'   150 / 141011.510.8 29.024.825.5
Track history (hours):
 
Tides and Currents Weather Stations Pressure Air Temp Water Temp Dewpoint Dewpoint Depression Visibility Wind Speed Wind Dir Waves Ship Positions

British Robin

Last reported at 2016-May-05 04:28 UTC. Time now 2016-May-05 04:47 UTC.
Position N 29°25' W 093°43'.

Length 251.5 m; beam 43.9 m; draft 15 m.

Type: Tanker. MMSI: 232156000.

Date/timePositionNaut miles runAvg speedWind from/ knotsBaromVisibWave heightAir tempDewpointWater temp
2016-May-05 04:28N 29°25' W 093°43'61 1.2
2016-May-03 02:33N 29°23' W 094°53'  
2016-Apr-30 16:33N 29°45' W 095°06'5 5.1
2016-Apr-30 15:33N 29°42' W 095°01'9 9.4
2016-Apr-30 14:33N 29°34' W 094°55'1110.8
2016-Apr-30 13:33N 29°25' W 094°49'16 0.7
2016-Apr-29 14:29N 29°12' W 094°38'1 1.1
2016-Apr-29 13:27N 29°11' W 094°39'10 7.3
2016-Apr-29 12:04N 29°04' W 094°32'611.2
2016-Apr-29 11:33N 28°60' W 094°27'10 9.7
2016-Apr-29 10:33N 28°55' W 094°17'1313.3
2016-Apr-29 09:33N 28°52' W 094°03'1313.0
2016-Apr-29 08:33N 28°48' W 093°48'1313.6
2016-Apr-29 07:33N 28°40' W 093°36'1413.8
2016-Apr-29 06:33N 28°32' W 093°23'4213.9
2016-Apr-29 03:34N 28°05' W 092°47'44912.6
2016-Apr-27 16:00N 23°12' W 086°30'   150 / 141011.510.8 29.024.825.5

Dump ship's entire track history